createdAt,value
2023-01-21T00:00:36.980Z,48.00
2023-01-21T00:03:03.475Z,46.35
2023-01-21T00:05:29.966Z,46.58
2023-01-21T00:07:56.362Z,50.08
2023-01-21T00:10:22.804Z,46.75
2023-01-21T00:12:49.248Z,49.58
2023-01-21T00:15:15.651Z,50.25
2023-01-21T00:17:43.381Z,55.80
2023-01-21T00:20:11.022Z,51.35
2023-01-21T00:22:37.411Z,54.40
2023-01-21T00:25:04.262Z,50.30
2023-01-21T00:27:30.698Z,50.85
2023-01-21T00:29:57.095Z,54.05
2023-01-21T00:32:23.610Z,52.67
2023-01-21T00:34:51.523Z,52.90
2023-01-21T00:37:17.911Z,47.85
2023-01-21T00:39:44.342Z,47.95
2023-01-21T00:42:10.842Z,54.10
2023-01-21T00:44:37.380Z,53.67
2023-01-21T00:47:03.927Z,51.92
2023-01-21T00:49:30.426Z,45.58
2023-01-21T00:51:58.276Z,45.63
2023-01-21T00:54:25.371Z,49.15
2023-01-21T00:56:51.788Z,52.05
2023-01-21T00:59:18.200Z,53.58
2023-01-21T01:01:44.676Z,57.55
2023-01-21T01:04:11.156Z,50.55
2023-01-21T01:06:37.774Z,57.88
2023-01-21T01:09:05.655Z,52.33
2023-01-21T01:11:32.137Z,46.35
2023-01-21T01:13:59.172Z,50.28
2023-01-21T01:16:26.208Z,43.25
2023-01-21T01:18:52.680Z,47.50
2023-01-21T01:21:20.914Z,46.72
2023-01-21T01:23:48.256Z,44.42
2023-01-21T01:26:17.825Z,49.22
2023-01-21T01:28:44.431Z,47.97
2023-01-21T01:31:12.596Z,42.15
2023-01-21T01:33:39.159Z,44.45
2023-01-21T01:36:08.591Z,43.28
2023-01-21T01:38:35.024Z,47.47
2023-01-21T01:41:01.965Z,44.72
2023-01-21T01:43:51.511Z,42.83
2023-01-21T01:46:18.364Z,47.33
2023-01-21T01:48:48.636Z,53.47
2023-01-21T01:51:19.181Z,40.63
2023-01-21T01:53:46.965Z,43.47
2023-01-21T01:56:15.265Z,40.85
2023-01-21T01:58:43.804Z,39.42
2023-01-21T02:01:10.408Z,43.70
2023-01-21T02:03:40.017Z,39.40
2023-01-21T02:06:07.421Z,49.15
2023-01-21T02:08:34.131Z,45.35
2023-01-21T02:11:00.518Z,42.53
2023-01-21T02:13:29.222Z,39.33
2023-01-21T02:16:10.510Z,37.40
2023-01-21T02:18:44.695Z,38.70
2023-01-21T02:21:42.651Z,37.28
2023-01-21T02:24:36.411Z,38.72
2023-01-21T02:27:36.033Z,33.67
2023-01-21T02:30:37.143Z,37.70
2023-01-21T02:33:34.126Z,37.33
2023-01-21T02:36:11.907Z,36.10
2023-01-21T02:38:45.440Z,36.63
2023-01-21T02:41:23.100Z,36.20
2023-01-21T02:43:56.037Z,37.67
2023-01-21T02:46:28.882Z,26.07
2023-01-21T02:49:00.174Z,24.58
2023-01-21T02:51:26.622Z,33.45
2023-01-21T02:53:53.045Z,34.60
2023-01-21T02:56:24.690Z,33.88
2023-01-21T02:58:56.544Z,33.28
2023-01-21T03:01:32.237Z,35.08
2023-01-21T03:04:40.130Z,33.53
2023-01-21T03:07:16.137Z,36.45
2023-01-21T03:09:42.752Z,34.38
2023-01-21T03:12:24.212Z,27.70
2023-01-21T03:14:59.758Z,34.70
2023-01-21T03:17:34.223Z,34.65
2023-01-21T03:20:07.413Z,38.22
2023-01-21T03:22:37.069Z,26.30
2023-01-21T03:25:05.774Z,31.52
2023-01-21T03:27:32.980Z,33.30
2023-01-21T03:30:05.652Z,35.10
2023-01-21T03:32:34.164Z,35.92
2023-01-21T03:35:03.680Z,35.42
2023-01-21T03:37:33.715Z,35.58
2023-01-21T03:40:10.836Z,33.13
2023-01-21T03:42:37.437Z,32.78
2023-01-21T03:45:06.403Z,34.50
2023-01-21T03:47:36.301Z,32.35
2023-01-21T03:50:06.854Z,31.77
2023-01-21T03:52:33.622Z,32.67
2023-01-21T03:55:00.177Z,37.47
2023-01-21T03:57:27.941Z,34.33
2023-01-21T03:59:54.946Z,30.27
2023-01-21T04:02:21.426Z,33.85
2023-01-21T04:04:48.063Z,34.70
2023-01-21T04:07:15.180Z,27.80
2023-01-21T04:09:41.840Z,32.88
2023-01-21T04:12:09.190Z,31.65
2023-01-21T04:14:36.942Z,32.58
2023-01-21T04:17:03.495Z,29.73
2023-01-21T04:19:29.924Z,33.35
2023-01-21T04:21:56.388Z,33.58
2023-01-21T04:24:22.795Z,32.90
2023-01-21T04:26:49.173Z,34.50
2023-01-21T04:29:15.679Z,28.83
2023-01-21T04:31:43.768Z,27.23
2023-01-21T04:34:10.625Z,30.77
2023-01-21T04:36:37.012Z,32.15
2023-01-21T04:39:03.633Z,32.83
2023-01-21T04:41:30.067Z,34.13
2023-01-21T04:43:56.444Z,33.65
2023-01-21T04:46:22.871Z,28.73
2023-01-21T04:48:50.629Z,33.55
2023-01-21T04:51:17.045Z,30.77
2023-01-21T04:53:43.639Z,32.35
2023-01-21T04:56:10.022Z,32.88
2023-01-21T04:58:36.577Z,31.38
2023-01-21T05:01:03.003Z,32.17
2023-01-21T05:03:29.428Z,31.27
2023-01-21T05:05:57.163Z,30.80
2023-01-21T05:08:23.632Z,29.85
2023-01-21T05:10:50.018Z,29.65
2023-01-21T05:13:16.412Z,33.58
2023-01-21T05:15:42.874Z,35.45
2023-01-21T05:18:09.324Z,30.75
2023-01-21T05:20:35.720Z,32.55
2023-01-21T05:23:03.484Z,29.48
2023-01-21T05:25:29.893Z,34.63
2023-01-21T05:27:56.401Z,30.35
2023-01-21T05:30:23.514Z,30.90
2023-01-21T05:32:50.936Z,30.13
2023-01-21T05:35:18.466Z,35.05
2023-01-21T05:37:44.889Z,31.30
2023-01-21T05:40:13.947Z,29.65
2023-01-21T05:42:40.557Z,28.55
2023-01-21T05:45:08.169Z,30.98
2023-01-21T05:47:34.580Z,30.00
2023-01-21T05:50:01.025Z,34.10
2023-01-21T05:52:27.439Z,29.90
2023-01-21T05:55:01.764Z,31.40
2023-01-21T05:57:30.946Z,32.47
2023-01-21T05:59:57.742Z,28.35
2023-01-21T06:02:24.720Z,32.58
2023-01-21T06:04:51.177Z,28.17
2023-01-21T06:07:17.607Z,28.92
2023-01-21T06:09:44.016Z,28.80
2023-01-21T06:12:10.455Z,30.40
2023-01-21T06:14:38.209Z,31.52
2023-01-21T06:17:05.077Z,32.92
2023-01-21T06:19:31.519Z,30.88
2023-01-21T06:21:57.929Z,33.15
2023-01-21T06:24:24.434Z,30.73
2023-01-21T06:26:50.843Z,38.97
2023-01-21T06:29:17.318Z,30.67
2023-01-21T06:31:45.139Z,31.67
2023-01-21T06:34:12.001Z,33.33
2023-01-21T06:36:38.835Z,30.52
2023-01-21T06:39:05.237Z,31.48
2023-01-21T06:41:31.671Z,27.73
2023-01-21T06:43:58.081Z,34.83
2023-01-21T06:46:24.569Z,32.70
2023-01-21T06:48:52.426Z,32.97
2023-01-21T06:51:18.963Z,33.42
2023-01-21T06:53:45.407Z,37.30
2023-01-21T06:56:11.866Z,33.67
2023-01-21T06:58:38.354Z,32.97
2023-01-21T07:01:05.135Z,35.83
2023-01-21T07:03:31.571Z,37.03
2023-01-21T07:05:59.314Z,36.83
2023-01-21T07:08:25.717Z,30.67
2023-01-21T07:10:52.168Z,37.50
2023-01-21T07:13:18.581Z,36.72
2023-01-21T07:15:45.036Z,36.13
2023-01-21T07:18:11.578Z,36.58
2023-01-21T07:20:40.646Z,38.63
2023-01-21T07:23:08.653Z,36.10
2023-01-21T07:25:35.134Z,36.60
2023-01-21T07:28:01.755Z,37.67
2023-01-21T07:30:28.180Z,32.38
2023-01-21T07:32:54.650Z,34.45
2023-01-21T07:35:21.091Z,36.38
2023-01-21T07:37:47.488Z,37.67
2023-01-21T07:40:15.520Z,40.22
2023-01-21T07:42:41.900Z,39.20
2023-01-21T07:45:09.343Z,40.42
2023-01-21T07:47:35.765Z,33.83
2023-01-21T07:50:02.164Z,33.85
2023-01-21T07:52:28.560Z,32.60
2023-01-21T07:54:54.957Z,37.22
2023-01-21T07:57:22.688Z,36.30
2023-01-21T07:59:49.105Z,31.52
2023-01-21T08:02:15.673Z,38.00
2023-01-21T08:04:42.138Z,34.20
2023-01-21T08:07:09.559Z,32.17
2023-01-21T08:09:37.962Z,31.33
2023-01-21T08:12:05.458Z,33.22
2023-01-21T08:14:33.913Z,37.22
2023-01-21T08:17:00.998Z,37.88
2023-01-21T08:19:27.493Z,31.00
2023-01-21T08:21:53.936Z,28.83
2023-01-21T08:24:20.383Z,30.00
2023-01-21T08:26:46.773Z,34.03
2023-01-21T08:29:13.209Z,35.30
2023-01-21T08:31:41.045Z,28.85
2023-01-21T08:34:07.676Z,32.63
2023-01-21T08:36:34.087Z,31.67
2023-01-21T08:39:00.511Z,30.30
2023-01-21T08:41:27.075Z,28.67
2023-01-21T08:43:53.532Z,28.70
2023-01-21T08:46:19.935Z,29.98
2023-01-21T08:48:47.727Z,29.75
2023-01-21T08:51:14.241Z,31.90
2023-01-21T08:53:40.693Z,30.27
2023-01-21T08:56:07.503Z,27.45
2023-01-21T08:58:34.013Z,29.48
2023-01-21T09:01:06.860Z,27.38
2023-01-21T09:03:33.270Z,29.52
2023-01-21T09:06:01.634Z,26.60
2023-01-21T09:08:28.239Z,27.40
2023-01-21T09:10:57.137Z,25.20
2023-01-21T09:13:23.571Z,28.85
2023-01-21T09:15:50.253Z,28.25
2023-01-21T09:18:16.677Z,27.13
2023-01-21T09:20:43.075Z,24.63
2023-01-21T09:23:11.465Z,27.10
2023-01-21T09:25:37.918Z,32.42
2023-01-21T09:28:04.460Z,31.17
2023-01-21T09:30:30.900Z,30.33
2023-01-21T09:32:57.342Z,28.58
2023-01-21T09:35:23.754Z,30.65
2023-01-21T09:37:50.157Z,31.35
2023-01-21T09:40:18.055Z,28.98
2023-01-21T09:42:44.519Z,35.30
2023-01-21T09:45:14.973Z,29.75
2023-01-21T09:47:44.810Z,31.70
2023-01-21T09:50:14.226Z,32.70
2023-01-21T09:52:42.117Z,32.28
2023-01-21T09:55:16.103Z,32.17
2023-01-21T09:58:06.290Z,30.05
2023-01-21T10:00:40.253Z,31.15
2023-01-21T10:03:18.121Z,31.48
2023-01-21T10:06:01.589Z,34.55
2023-01-21T10:08:34.421Z,32.67
2023-01-21T10:11:13.521Z,29.83
2023-01-21T10:13:51.274Z,27.30
2023-01-21T10:16:25.353Z,27.45
2023-01-21T10:18:55.370Z,29.48
2023-01-21T10:21:30.317Z,29.23
2023-01-21T10:23:59.367Z,25.27
2023-01-21T10:26:27.971Z,28.67
2023-01-21T10:28:55.872Z,29.52
2023-01-21T10:31:25.233Z,29.33
2023-01-21T10:33:51.929Z,29.83
2023-01-21T10:36:42.421Z,32.38
2023-01-21T10:39:18.541Z,28.38
2023-01-21T10:42:11.219Z,31.35
2023-01-21T10:44:45.572Z,30.05
2023-01-21T10:47:21.797Z,33.38
2023-01-21T10:49:58.968Z,31.13
2023-01-21T10:52:35.720Z,33.65
2023-01-21T10:55:13.159Z,21.50
2023-01-21T10:57:53.772Z,29.58
2023-01-21T11:00:24.662Z,33.00
2023-01-21T11:02:56.733Z,24.05
2023-01-21T11:05:25.531Z,26.55
2023-01-21T11:07:53.674Z,29.35
2023-01-21T11:10:23.789Z,27.10
2023-01-21T11:12:50.484Z,31.85
2023-01-21T11:15:19.952Z,27.20
2023-01-21T11:17:50.901Z,31.23
2023-01-21T11:20:22.436Z,27.52
2023-01-21T11:22:49.784Z,33.42
2023-01-21T11:25:36.120Z,27.92
2023-01-21T11:28:02.880Z,25.58
2023-01-21T11:30:49.113Z,24.85
2023-01-21T11:33:26.976Z,25.85
2023-01-21T11:35:54.977Z,26.08
2023-01-21T11:38:32.891Z,27.92
2023-01-21T11:41:00.704Z,28.17
2023-01-21T11:43:35.952Z,29.70
2023-01-21T11:46:21.779Z,29.48
2023-01-21T11:48:49.690Z,28.67
2023-01-21T11:51:16.171Z,25.85
2023-01-21T11:53:42.639Z,30.70
2023-01-21T11:56:09.321Z,29.35
2023-01-21T11:58:38.569Z,24.63
2023-01-21T12:01:08.581Z,25.85
2023-01-21T12:03:40.899Z,28.08
2023-01-21T12:06:16.576Z,25.90
2023-01-21T12:08:43.439Z,22.95
2023-01-21T12:11:10.141Z,24.65
2023-01-21T12:13:46.645Z,21.85
2023-01-21T12:16:26.852Z,22.55
2023-01-21T12:19:10.602Z,22.70
2023-01-21T12:21:51.896Z,21.67
2023-01-21T12:24:29.566Z,21.35
2023-01-21T12:27:03.869Z,21.02
2023-01-21T12:29:46.776Z,25.10
2023-01-21T12:32:20.050Z,20.98
2023-01-21T12:34:53.011Z,22.23
2023-01-21T12:37:26.826Z,22.33
2023-01-21T12:42:25.558Z,24.90
2023-01-21T12:44:55.632Z,24.02
2023-01-21T12:47:29.030Z,23.83
2023-01-21T12:50:07.099Z,20.83
2023-01-21T12:52:41.685Z,21.92
2023-01-21T12:55:18.460Z,25.27
2023-01-21T12:57:52.373Z,23.85
2023-01-21T13:02:56.710Z,20.48
2023-01-21T13:05:32.506Z,20.90
2023-01-21T13:08:13.180Z,21.20
2023-01-21T13:10:44.244Z,20.73
2023-01-21T13:13:17.087Z,20.83
2023-01-21T13:15:48.145Z,23.40
2023-01-21T13:18:18.977Z,19.08
2023-01-21T13:20:52.412Z,20.00
2023-01-21T13:23:28.198Z,19.90
2023-01-21T13:26:00.747Z,22.10
2023-01-21T13:28:34.173Z,20.58
2023-01-21T13:31:07.807Z,23.35
2023-01-21T13:36:23.715Z,20.17
2023-01-21T13:38:59.005Z,20.60
2023-01-21T13:41:39.297Z,20.35
2023-01-21T13:44:34.577Z,20.10
2023-01-21T13:47:10.131Z,18.75
2023-01-21T13:50:00.670Z,18.23
2023-01-21T13:52:39.677Z,15.95
2023-01-21T13:55:23.046Z,20.83
2023-01-21T13:58:02.943Z,18.80
2023-01-21T14:00:33.413Z,21.38
2023-01-21T14:03:10.405Z,17.52
2023-01-21T14:05:41.691Z,19.10
2023-01-21T14:08:13.475Z,19.63
2023-01-21T14:10:49.523Z,24.73
2023-01-21T14:13:44.725Z,21.80
2023-01-21T14:16:28.048Z,22.67
2023-01-21T14:19:16.129Z,16.20
2023-01-21T14:22:05.601Z,24.77
2023-01-21T14:24:47.254Z,21.25
2023-01-21T14:27:24.540Z,21.58
2023-01-21T14:29:55.361Z,23.05
2023-01-21T14:32:26.249Z,19.25
2023-01-21T14:35:08.366Z,20.67
2023-01-21T14:37:43.617Z,24.70
2023-01-21T14:40:18.345Z,23.60
2023-01-21T14:42:48.229Z,19.58
2023-01-21T14:45:16.500Z,23.55
2023-01-21T14:47:47.761Z,23.77
2023-01-21T14:50:46.011Z,24.90
2023-01-21T14:53:18.468Z,25.50
2023-01-21T14:55:44.983Z,30.15
2023-01-21T14:58:22.436Z,25.48
2023-01-21T15:00:50.200Z,30.10
2023-01-21T15:03:22.889Z,26.25
2023-01-21T15:05:51.772Z,25.02
2023-01-21T15:08:23.141Z,25.42
2023-01-21T15:10:53.597Z,24.75
2023-01-21T15:13:30.395Z,25.10
2023-01-21T15:16:07.520Z,27.50
2023-01-21T15:18:37.312Z,24.73
2023-01-21T15:21:35.607Z,27.08
2023-01-21T15:24:21.382Z,25.23
2023-01-21T15:27:12.804Z,23.90
2023-01-21T15:29:41.886Z,25.73
2023-01-21T15:32:29.357Z,28.00
2023-01-21T15:34:59.266Z,26.25
2023-01-21T15:37:27.105Z,32.10
2023-01-21T15:39:58.343Z,27.02
2023-01-21T15:42:35.643Z,31.50
2023-01-21T15:45:20.090Z,29.73
2023-01-21T15:48:13.318Z,28.60
2023-01-21T15:50:46.204Z,28.95
2023-01-21T15:53:49.700Z,30.80
2023-01-21T15:56:32.124Z,29.60
2023-01-21T15:59:12.138Z,31.33
2023-01-21T16:01:40.316Z,27.83
2023-01-21T16:04:28.320Z,30.38
2023-01-21T16:07:12.723Z,31.05
2023-01-21T16:09:49.771Z,30.13
2023-01-21T16:12:26.558Z,30.52
2023-01-21T16:14:59.473Z,29.95
2023-01-21T16:17:38.634Z,31.20
2023-01-21T16:20:08.887Z,33.10
2023-01-21T16:22:38.113Z,31.05
2023-01-21T16:25:07.574Z,31.42
2023-01-21T16:27:34.590Z,27.35
2023-01-21T16:30:03.779Z,28.67
2023-01-21T16:32:31.891Z,33.25
2023-01-21T16:34:59.191Z,28.23
2023-01-21T16:37:27.540Z,30.48
2023-01-21T16:39:56.305Z,29.23
2023-01-21T16:42:26.148Z,30.70
2023-01-21T16:44:53.034Z,28.80
2023-01-21T16:47:23.461Z,30.00
2023-01-21T16:49:54.414Z,33.65
2023-01-21T16:52:33.368Z,32.33
2023-01-21T16:55:00.760Z,29.52
2023-01-21T16:57:30.713Z,29.05
2023-01-21T16:59:57.711Z,26.30
2023-01-21T17:02:26.331Z,25.88
2023-01-21T17:04:56.919Z,29.75
2023-01-21T17:07:28.073Z,31.17
2023-01-21T17:10:00.978Z,28.20
2023-01-21T17:12:36.061Z,29.35
2023-01-21T17:15:13.308Z,27.45
2023-01-21T17:20:41.496Z,23.13
2023-01-21T17:23:15.090Z,27.33
2023-01-21T17:25:42.212Z,29.83
2023-01-21T17:28:16.657Z,24.23
2023-01-21T17:30:43.452Z,24.52
2023-01-21T17:33:27.156Z,29.60
2023-01-21T17:36:08.204Z,25.00
2023-01-21T17:38:39.619Z,27.42
2023-01-21T17:41:07.301Z,34.17
2023-01-21T17:43:34.152Z,31.13
2023-01-21T17:46:00.903Z,24.45
2023-01-21T17:48:29.816Z,26.73
2023-01-21T17:51:06.540Z,25.88
2023-01-21T17:53:34.862Z,25.85
2023-01-21T17:56:02.988Z,23.73
2023-01-21T17:58:45.309Z,25.00
2023-01-21T18:01:12.332Z,24.40
2023-01-21T18:03:38.845Z,25.88
2023-01-21T18:06:16.143Z,26.42
2023-01-21T18:08:42.682Z,25.98
2023-01-21T18:11:09.351Z,26.00
2023-01-21T18:13:35.799Z,23.98
2023-01-21T18:16:02.331Z,27.67
2023-01-21T18:18:30.167Z,28.67
2023-01-21T18:20:56.665Z,28.00
2023-01-21T18:23:24.476Z,25.30
2023-01-21T18:25:51.981Z,24.05
2023-01-21T18:28:19.899Z,22.55
2023-01-21T18:30:46.803Z,27.33
2023-01-21T18:33:13.771Z,27.85
2023-01-21T18:35:43.619Z,27.02
2023-01-21T18:38:11.017Z,26.05
2023-01-21T18:40:39.299Z,26.10
2023-01-21T18:43:07.116Z,24.92
2023-01-21T18:45:33.507Z,24.08
2023-01-21T18:48:00.014Z,20.35
2023-01-21T18:50:28.739Z,21.75
2023-01-21T18:52:55.680Z,20.48
2023-01-21T18:55:27.558Z,20.58
2023-01-21T18:58:16.696Z,20.48
2023-01-21T19:00:43.217Z,20.77
2023-01-21T19:03:12.617Z,17.63
2023-01-21T19:05:41.759Z,19.45
2023-01-21T19:08:14.157Z,20.73
2023-01-21T19:10:40.555Z,25.75
2023-01-21T19:13:09.296Z,19.13
2023-01-21T19:15:36.024Z,20.13
2023-01-21T19:18:03.047Z,14.40
2023-01-21T19:20:29.539Z,15.27
2023-01-21T19:22:56.347Z,15.25
2023-01-21T19:25:25.402Z,20.60
2023-01-21T19:27:55.631Z,17.48
2023-01-21T19:30:26.751Z,13.10
2023-01-21T19:32:54.441Z,12.65
2023-01-21T19:35:26.567Z,13.30
2023-01-21T19:37:54.132Z,14.15
2023-01-21T19:40:22.052Z,11.93
2023-01-21T19:42:48.852Z,12.07
2023-01-21T19:45:16.803Z,12.25
2023-01-21T19:47:47.502Z,13.15
2023-01-21T19:50:14.685Z,11.60
2023-01-21T19:52:41.203Z,11.85
2023-01-21T19:55:12.547Z,10.73
2023-01-21T19:57:38.994Z,13.50
2023-01-21T20:00:16.143Z,12.20
2023-01-21T20:02:44.288Z,10.43
2023-01-21T20:05:10.750Z,11.00
2023-01-21T20:07:37.468Z,9.10
2023-01-21T20:10:12.596Z,11.40
2023-01-21T20:12:39.004Z,8.30
2023-01-21T20:15:06.951Z,11.75
2023-01-21T20:17:34.254Z,10.00
2023-01-21T20:20:02.935Z,14.25
2023-01-21T20:22:29.377Z,14.88
2023-01-21T20:24:55.815Z,11.48
2023-01-21T20:27:22.246Z,8.52
2023-01-21T20:30:02.439Z,8.55
2023-01-21T20:32:35.074Z,9.35
2023-01-21T20:35:02.898Z,12.23
2023-01-21T20:37:29.314Z,18.67
2023-01-21T20:39:55.778Z,12.02
2023-01-21T20:42:22.211Z,10.90
2023-01-21T20:44:48.689Z,15.75
2023-01-21T20:47:23.049Z,9.82
2023-01-21T20:49:59.030Z,10.88
2023-01-21T20:52:27.074Z,11.40
2023-01-21T20:54:53.486Z,17.25
2023-01-21T20:57:19.915Z,10.23
2023-01-21T20:59:46.355Z,13.52
2023-01-21T21:02:12.926Z,11.10
2023-01-21T21:04:39.368Z,8.48
2023-01-21T21:07:05.791Z,10.60
2023-01-21T21:09:33.561Z,11.73
2023-01-21T21:11:59.960Z,11.05
2023-01-21T21:14:26.416Z,10.18
2023-01-21T21:16:52.829Z,8.55
2023-01-21T21:19:19.248Z,9.98
2023-01-21T21:21:45.690Z,7.70
2023-01-21T21:24:12.134Z,10.98
2023-01-21T21:26:39.894Z,9.18
2023-01-21T21:29:11.561Z,11.35
2023-01-21T21:31:38.029Z,11.88
2023-01-21T21:34:04.445Z,9.25
2023-01-21T21:36:30.947Z,12.52
2023-01-21T21:38:58.487Z,11.88
2023-01-21T21:41:25.832Z,8.27
2023-01-21T21:43:53.570Z,9.68
2023-01-21T21:46:20.093Z,7.80
2023-01-21T21:48:46.535Z,8.55
2023-01-21T21:51:14.880Z,11.88
2023-01-21T21:53:41.635Z,10.15
2023-01-21T21:56:09.680Z,6.13
2023-01-21T21:58:36.612Z,10.98
2023-01-21T22:01:09.849Z,9.65
2023-01-21T22:03:36.458Z,9.52
2023-01-21T22:06:03.619Z,7.80
2023-01-21T22:08:30.707Z,8.77
2023-01-21T22:10:57.212Z,11.65
2023-01-21T22:13:23.630Z,7.13
2023-01-21T22:15:53.148Z,9.65
2023-01-21T22:18:20.941Z,7.75
2023-01-21T22:20:47.414Z,10.43
2023-01-21T22:23:13.825Z,10.38
2023-01-21T22:25:40.253Z,10.95
2023-01-21T22:28:06.677Z,10.85
2023-01-21T22:30:33.244Z,10.05
2023-01-21T22:32:59.750Z,11.35
2023-01-21T22:35:27.512Z,12.43
2023-01-21T22:37:53.946Z,20.83
2023-01-21T22:40:20.362Z,14.48
2023-01-21T22:42:46.862Z,13.25
2023-01-21T22:45:13.476Z,13.07
2023-01-21T22:47:39.914Z,14.13
2023-01-21T22:50:07.249Z,10.80
2023-01-21T22:52:34.964Z,10.27
2023-01-21T22:55:01.381Z,10.30
2023-01-21T22:57:27.809Z,9.93
2023-01-21T22:59:54.213Z,11.20
2023-01-21T23:02:20.754Z,10.93
2023-01-21T23:04:47.267Z,11.57
2023-01-21T23:07:13.712Z,8.88
2023-01-21T23:09:41.485Z,11.77
2023-01-21T23:12:07.894Z,11.48
2023-01-21T23:14:34.405Z,10.30
2023-01-21T23:17:00.846Z,8.95
2023-01-21T23:19:27.343Z,12.90
2023-01-21T23:21:53.788Z,14.10
2023-01-21T23:24:20.305Z,12.52
2023-01-21T23:26:48.034Z,12.70
2023-01-21T23:29:14.450Z,12.15
2023-01-21T23:31:40.936Z,10.15
2023-01-21T23:34:07.509Z,10.70
2023-01-21T23:36:33.915Z,11.80
2023-01-21T23:39:00.316Z,10.77
2023-01-21T23:41:26.755Z,11.05
2023-01-21T23:43:57.386Z,10.90
2023-01-21T23:46:23.932Z,9.80
2023-01-21T23:48:50.599Z,9.82
2023-01-21T23:51:17.887Z,9.73
2023-01-21T23:53:44.607Z,10.50
2023-01-21T23:56:13.610Z,10.10
2023-01-21T23:58:40.470Z,8.27
